sensor_id;sensor_type;location;lat;lon;timestamp;temperature;humidity
1123;DHT22;548;48.778;9.252;2023-01-15T10:12:49;6.60;99.90
1123;DHT22;548;48.778;9.252;2023-01-15T10:15:35;7.60;99.90
1123;DHT22;548;48.778;9.252;2023-01-15T10:18:04;7.50;99.90
1123;DHT22;548;48.778;9.252;2023-01-15T10:20:42;7.30;99.90
1123;DHT22;548;48.778;9.252;2023-01-15T10:26:13;7.40;99.90
1123;DHT22;548;48.778;9.252;2023-01-15T10:28:56;7.50;99.90
1123;DHT22;548;48.778;9.252;2023-01-15T10:31:31;7.50;99.90
1123;DHT22;548;48.778;9.252;2023-01-15T10:34:15;7.50;99.90
1123;DHT22;548;48.778;9.252;2023-01-15T10:36:53;7.50;99.90
1123;DHT22;548;48.778;9.252;2023-01-15T10:39:26;7.50;99.90
1123;DHT22;548;48.778;9.252;2023-01-15T10:42:03;7.50;99.90
1123;DHT22;548;48.778;9.252;2023-01-15T10:44:40;7.40;99.90
1123;DHT22;548;48.778;9.252;2023-01-15T10:47:12;7.40;99.90
1123;DHT22;548;48.778;9.252;2023-01-15T10:49:41;7.40;99.90
1123;DHT22;548;48.778;9.252;2023-01-15T10:52:19;7.30;99.90
1123;DHT22;548;48.778;9.252;2023-01-15T10:54:51;7.20;99.90
1123;DHT22;548;48.778;9.252;2023-01-15T10:57:23;7.10;99.90
1123;DHT22;548;48.778;9.252;2023-01-15T10:59:56;6.90;99.90
1123;DHT22;548;48.778;9.252;2023-01-15T11:02:27;6.70;99.90
1123;DHT22;548;48.778;9.252;2023-01-15T11:04:55;6.60;99.90
1123;DHT22;548;48.778;9.252;2023-01-15T11:07:26;6.50;99.90
1123;DHT22;548;48.778;9.252;2023-01-15T11:09:54;6.40;99.90
1123;DHT22;548;48.778;9.252;2023-01-15T11:12:23;6.30;99.90
1123;DHT22;548;48.778;9.252;2023-01-15T11:15:22;6.20;99.90
1123;DHT22;548;48.778;9.252;2023-01-15T11:18:12;6.10;99.90
1123;DHT22;548;48.778;9.252;2023-01-15T11:20:57;6.10;99.90
1123;DHT22;548;48.778;9.252;2023-01-15T11:23:25;6.10;99.90
1123;DHT22;548;48.778;9.252;2023-01-15T11:25:54;6.00;99.90
1123;DHT22;548;48.778;9.252;2023-01-15T11:28:31;6.00;99.90
1123;DHT22;548;48.778;9.252;2023-01-15T11:31:01;5.90;99.90
1123;DHT22;548;48.778;9.252;2023-01-15T11:33:29;6.00;99.90
1123;DHT22;548;48.778;9.252;2023-01-15T11:35:58;5.80;99.90
1123;DHT22;548;48.778;9.252;2023-01-15T11:38:26;5.80;99.90
1123;DHT22;548;48.778;9.252;2023-01-15T11:40:57;5.80;99.90
1123;DHT22;548;48.778;9.252;2023-01-15T11:43:25;5.80;99.90
1123;DHT22;548;48.778;9.252;2023-01-15T11:46:25;5.90;99.90
1123;DHT22;548;48.778;9.252;2023-01-15T11:49:08;6.00;99.90
1123;DHT22;548;48.778;9.252;2023-01-15T11:51:52;6.20;99.90
1123;DHT22;548;48.778;9.252;2023-01-15T11:54:21;6.10;99.90
1123;DHT22;548;48.778;9.252;2023-01-15T11:56:49;6.20;99.90
1123;DHT22;548;48.778;9.252;2023-01-15T11:59:18;6.20;99.90
1123;DHT22;548;48.778;9.252;2023-01-15T12:01:50;6.20;99.90
1123;DHT22;548;48.778;9.252;2023-01-15T12:04:35;6.10;99.90
1123;DHT22;548;48.778;9.252;2023-01-15T12:07:05;6.10;99.90
1123;DHT22;548;48.778;9.252;2023-01-15T12:09:50;6.20;99.90
1123;DHT22;548;48.778;9.252;2023-01-15T12:12:28;6.20;99.90
1123;DHT22;548;48.778;9.252;2023-01-15T12:15:11;6.00;99.90
1123;DHT22;548;48.778;9.252;2023-01-15T12:18:13;6.00;99.90
1123;DHT22;548;48.778;9.252;2023-01-15T12:20:57;6.00;99.90
1123;DHT22;548;48.778;9.252;2023-01-15T12:26:30;6.10;99.90
1123;DHT22;548;48.778;9.252;2023-01-15T12:29:03;6.10;99.90
1123;DHT22;548;48.778;9.252;2023-01-15T12:31:34;5.90;99.90
1123;DHT22;548;48.778;9.252;2023-01-15T12:34:09;5.90;99.90
1123;DHT22;548;48.778;9.252;2023-01-15T12:36:42;6.00;99.90
1123;DHT22;548;48.778;9.252;2023-01-15T12:39:15;5.90;99.90
1123;DHT22;548;48.778;9.252;2023-01-15T12:41:45;6.00;99.90
1123;DHT22;548;48.778;9.252;2023-01-15T12:44:35;6.00;99.90
1123;DHT22;548;48.778;9.252;2023-01-15T12:47:24;6.00;99.90
1123;DHT22;548;48.778;9.252;2023-01-15T12:49:56;6.10;99.90
1123;DHT22;548;48.778;9.252;2023-01-15T12:52:30;6.20;99.90
1123;DHT22;548;48.778;9.252;2023-01-15T12:55:05;6.20;99.90
1123;DHT22;548;48.778;9.252;2023-01-15T12:57:36;6.20;99.90
1123;DHT22;548;48.778;9.252;2023-01-15T13:00:12;6.30;99.90
1123;DHT22;548;48.778;9.252;2023-01-15T13:02:54;6.30;99.90
1123;DHT22;548;48.778;9.252;2023-01-15T13:05:27;6.40;99.90
1123;DHT22;548;48.778;9.252;2023-01-15T13:07:58;6.50;99.90
1123;DHT22;548;48.778;9.252;2023-01-15T13:10:28;6.60;99.90
1123;DHT22;548;48.778;9.252;2023-01-15T13:13:00;6.60;99.90
1123;DHT22;548;48.778;9.252;2023-01-15T13:15:31;6.70;99.90
1123;DHT22;548;48.778;9.252;2023-01-15T13:18:03;6.70;99.90
1123;DHT22;548;48.778;9.252;2023-01-15T13:20:43;6.80;99.90
1123;DHT22;548;48.778;9.252;2023-01-15T13:23:26;6.90;99.90
1123;DHT22;548;48.778;9.252;2023-01-15T13:26:06;6.90;99.90
1123;DHT22;548;48.778;9.252;2023-01-15T13:28:46;7.00;99.90
1123;DHT22;548;48.778;9.252;2023-01-15T13:31:34;7.00;99.90
1123;DHT22;548;48.778;9.252;2023-01-15T13:34:11;6.90;99.90
1123;DHT22;548;48.778;9.252;2023-01-15T13:36:42;6.90;99.90
1123;DHT22;548;48.778;9.252;2023-01-15T13:39:17;6.90;99.90
1123;DHT22;548;48.778;9.252;2023-01-15T13:41:46;6.90;99.90
1123;DHT22;548;48.778;9.252;2023-01-15T13:44:45;6.80;99.90
1123;DHT22;548;48.778;9.252;2023-01-15T13:47:17;6.80;99.90
1123;DHT22;548;48.778;9.252;2023-01-15T13:49:47;6.90;99.90
1123;DHT22;548;48.778;9.252;2023-01-15T13:52:23;6.80;99.90
1123;DHT22;548;48.778;9.252;2023-01-15T13:54:52;6.80;99.90
1123;DHT22;548;48.778;9.252;2023-01-15T13:57:24;6.80;99.90
1123;DHT22;548;48.778;9.252;2023-01-15T13:59:57;6.90;99.90
1123;DHT22;548;48.778;9.252;2023-01-15T14:02:25;6.90;99.90
1123;DHT22;548;48.778;9.252;2023-01-15T14:04:52;6.90;99.90
1123;DHT22;548;48.778;9.252;2023-01-15T14:07:31;6.90;99.90
1123;DHT22;548;48.778;9.252;2023-01-15T14:10:09;6.90;99.90
1123;DHT22;548;48.778;9.252;2023-01-15T14:12:51;6.90;99.90
1123;DHT22;548;48.778;9.252;2023-01-15T14:15:27;7.00;99.90
1123;DHT22;548;48.778;9.252;2023-01-15T14:18:11;7.10;99.90
1123;DHT22;548;48.778;9.252;2023-01-15T14:21:02;7.20;99.90
1123;DHT22;548;48.778;9.252;2023-01-15T14:23:45;7.50;99.90
1123;DHT22;548;48.778;9.252;2023-01-15T14:26:21;7.70;99.90
1123;DHT22;548;48.778;9.252;2023-01-15T14:29:01;8.00;99.90
1123;DHT22;548;48.778;9.252;2023-01-15T14:31:50;8.20;99.90
1123;DHT22;548;48.778;9.252;2023-01-15T14:34:24;8.00;99.90
1123;DHT22;548;48.778;9.252;2023-01-15T14:36:55;8.10;99.90
1123;DHT22;548;48.778;9.252;2023-01-15T14:39:32;8.00;99.90
1123;DHT22;548;48.778;9.252;2023-01-15T14:42:05;7.90;99.90
1123;DHT22;548;48.778;9.252;2023-01-15T14:44:59;7.80;99.90
1123;DHT22;548;48.778;9.252;2023-01-15T14:47:32;7.80;99.90
1123;DHT22;548;48.778;9.252;2023-01-15T14:50:22;7.80;99.90
1123;DHT22;548;48.778;9.252;2023-01-15T14:52:50;7.90;99.90
1123;DHT22;548;48.778;9.252;2023-01-15T14:55:19;8.00;99.90
1123;DHT22;548;48.778;9.252;2023-01-15T14:57:54;7.80;99.90
1123;DHT22;548;48.778;9.252;2023-01-15T15:00:23;7.60;99.90
1123;DHT22;548;48.778;9.252;2023-01-15T15:02:51;7.60;99.90
1123;DHT22;548;48.778;9.252;2023-01-15T15:05:21;7.50;99.90
1123;DHT22;548;48.778;9.252;2023-01-15T15:07:49;7.50;99.90
1123;DHT22;548;48.778;9.252;2023-01-15T15:10:23;7.30;99.90
1123;DHT22;548;48.778;9.252;2023-01-15T15:12:56;7.20;99.90
1123;DHT22;548;48.778;9.252;2023-01-15T15:15:34;7.10;99.90
1123;DHT22;548;48.778;9.252;2023-01-15T15:18:07;7.00;99.90
1123;DHT22;548;48.778;9.252;2023-01-15T15:20:45;6.90;99.90
1123;DHT22;548;48.778;9.252;2023-01-15T15:23:18;6.80;99.90
1123;DHT22;548;48.778;9.252;2023-01-15T15:25:54;6.80;99.90
1123;DHT22;548;48.778;9.252;2023-01-15T15:28:21;6.80;99.90
1123;DHT22;548;48.778;9.252;2023-01-15T15:30:48;6.70;99.90
1123;DHT22;548;48.778;9.252;2023-01-15T15:33:17;6.70;99.90
1123;DHT22;548;48.778;9.252;2023-01-15T15:35:47;6.60;99.90
1123;DHT22;548;48.778;9.252;2023-01-15T15:38:16;6.50;99.90
1123;DHT22;548;48.778;9.252;2023-01-15T15:40:46;6.50;99.90
1123;DHT22;548;48.778;9.252;2023-01-15T15:43:19;6.50;99.90
1123;DHT22;548;48.778;9.252;2023-01-15T15:46:21;6.50;99.90
1123;DHT22;548;48.778;9.252;2023-01-15T15:49:07;6.30;99.90
1123;DHT22;548;48.778;9.252;2023-01-15T15:51:36;6.20;99.90
1123;DHT22;548;48.778;9.252;2023-01-15T15:54:15;6.20;99.90
1123;DHT22;548;48.778;9.252;2023-01-15T15:56:55;6.20;99.90
1123;DHT22;548;48.778;9.252;2023-01-15T15:59:30;6.20;99.90
1123;DHT22;548;48.778;9.252;2023-01-15T16:01:59;6.20;99.90
1123;DHT22;548;48.778;9.252;2023-01-15T16:04:27;6.20;99.90
1123;DHT22;548;48.778;9.252;2023-01-15T16:06:54;6.20;99.90
1123;DHT22;548;48.778;9.252;2023-01-15T16:09:21;6.10;99.90
1123;DHT22;548;48.778;9.252;2023-01-15T16:11:50;6.20;99.90
1123;DHT22;548;48.778;9.252;2023-01-15T16:14:17;6.10;99.90
1123;DHT22;548;48.778;9.252;2023-01-15T16:16:47;6.00;99.90
1123;DHT22;548;48.778;9.252;2023-01-15T16:19:19;6.00;99.90
1123;DHT22;548;48.778;9.252;2023-01-15T16:21:47;6.00;99.90
1123;DHT22;548;48.778;9.252;2023-01-15T16:24:25;6.00;99.90
1123;DHT22;548;48.778;9.252;2023-01-15T16:26:56;6.00;99.90
1123;DHT22;548;48.778;9.252;2023-01-15T16:29:28;5.90;99.90
1123;DHT22;548;48.778;9.252;2023-01-15T16:31:56;5.90;99.90
1123;DHT22;548;48.778;9.252;2023-01-15T16:34:26;5.90;99.90
1123;DHT22;548;48.778;9.252;2023-01-15T16:36:55;5.90;99.90
1123;DHT22;548;48.778;9.252;2023-01-15T16:39:26;6.00;99.90
1123;DHT22;548;48.778;9.252;2023-01-15T16:41:56;5.90;99.90
1123;DHT22;548;48.778;9.252;2023-01-15T16:44:30;5.90;99.90
1123;DHT22;548;48.778;9.252;2023-01-15T16:47:00;5.90;99.90
1123;DHT22;548;48.778;9.252;2023-01-15T16:49:29;5.80;99.90
1123;DHT22;548;48.778;9.252;2023-01-15T16:51:58;5.80;99.90
1123;DHT22;548;48.778;9.252;2023-01-15T16:54:42;5.80;99.90
1123;DHT22;548;48.778;9.252;2023-01-15T16:57:28;5.80;99.90
1123;DHT22;548;48.778;9.252;2023-01-15T16:59:59;5.80;99.90
1123;DHT22;548;48.778;9.252;2023-01-15T17:02:32;5.80;99.90
1123;DHT22;548;48.778;9.252;2023-01-15T17:04:59;5.70;99.90
1123;DHT22;548;48.778;9.252;2023-01-15T17:07:31;5.70;99.90
1123;DHT22;548;48.778;9.252;2023-01-15T17:10:02;5.70;99.90
1123;DHT22;548;48.778;9.252;2023-01-15T17:12:32;5.70;99.90
1123;DHT22;548;48.778;9.252;2023-01-15T17:15:37;5.60;99.90
1123;DHT22;548;48.778;9.252;2023-01-15T17:18:36;5.60;99.90
1123;DHT22;548;48.778;9.252;2023-01-15T17:21:03;5.60;99.90
1123;DHT22;548;48.778;9.252;2023-01-15T17:23:34;5.50;99.90
1123;DHT22;548;48.778;9.252;2023-01-15T17:26:02;5.60;99.90
1123;DHT22;548;48.778;9.252;2023-01-15T17:28:29;5.50;99.90
1123;DHT22;548;48.778;9.252;2023-01-15T17:31:00;5.50;99.90
1123;DHT22;548;48.778;9.252;2023-01-15T17:33:27;5.50;99.90
1123;DHT22;548;48.778;9.252;2023-01-15T17:35:55;5.50;99.90
1123;DHT22;548;48.778;9.252;2023-01-15T17:38:25;5.40;99.90
1123;DHT22;548;48.778;9.252;2023-01-15T17:40:52;5.40;99.90
1123;DHT22;548;48.778;9.252;2023-01-15T17:43:22;5.40;99.90
1123;DHT22;548;48.778;9.252;2023-01-15T17:45:48;5.30;99.90
1123;DHT22;548;48.778;9.252;2023-01-15T17:48:15;5.30;99.90
1123;DHT22;548;48.778;9.252;2023-01-15T17:50:42;5.40;99.90
1123;DHT22;548;48.778;9.252;2023-01-15T17:53:10;5.30;99.90
1123;DHT22;548;48.778;9.252;2023-01-15T17:55:37;5.30;99.90
1123;DHT22;548;48.778;9.252;2023-01-15T17:58:21;5.30;99.90
